Bow Flora — LAEX5 — position and weather

sailwx.info

Track history (hours):
 
Tides and Currents Weather Stations Pressure Air Temp Water Temp Dewpoint Dewpoint Depression Visibility Wind Speed Wind Dir Waves Ship Positions

Bow Flora

Last reported at 2018-Jan-12 04:38 UTC. Time now 2018-Jan-19 03:09 UTC.
Position N 29°45' W 095°06'.

Length 183 m; draft 9.3 m.

Type: Ship (hazmat cat B). MMSI: 259927000.

Date/timePositionNaut miles runAvg speedWind from/ knotsBaromVisibWave heightAir tempDewpointWater temp
2018-Jan-12 04:38N 29°45' W 095°06'0 0.2
2018-Jan-12 04:30N 29°45' W 095°06'1 2.5
2018-Jan-12 04:00N 29°46' W 095°05'4 7.0
2018-Jan-12 03:30N 29°44' W 095°01'3 7.1
2018-Jan-12 03:00N 29°41' W 094°59'4 8.7
2018-Jan-12 02:30N 29°37' W 094°57'510.5
2018-Jan-12 02:00N 29°32' W 094°54'610.2
2018-Jan-12 01:26N 29°27' W 094°51'610.4
2018-Jan-12 00:52N 29°22' W 094°48'1 0.0
2018-Jan-10 21:20N 29°21' W 094°47'410.7
2018-Jan-10 21:00N 29°24' W 094°49'510.8
2018-Jan-10 20:30N 29°29' W 094°52'611.3
2018-Jan-10 20:00N 29°34' W 094°55'4 8.8
2018-Jan-10 19:30N 29°37' W 094°59'2 3.9
2018-Jan-10 19:00N 29°37' W 095°01'0 0.0
2018-Jan-10 18:28N 29°37' W 095°01'0 0.0
2018-Jan-10 17:58N 29°37' W 095°01'0 0.0
2018-Jan-10 17:28N 29°37' W 095°01'0 0.0
2018-Jan-10 16:58N 29°37' W 095°01'0 0.0
2018-Jan-10 16:28N 29°37' W 095°01'0 0.0
2018-Jan-10 15:58N 29°37' W 095°01'0 0.0
2018-Jan-10 15:28N 29°37' W 095°01'0 0.0
2018-Jan-10 14:58N 29°37' W 095°01'0 0.0
2018-Jan-10 14:28N 29°37' W 095°01'0 0.0
2018-Jan-10 13:58N 29°37' W 095°01'0 0.0
2018-Jan-10 13:28N 29°37' W 095°01'0 0.0
2018-Jan-10 12:58N 29°37' W 095°01'0 0.0
2018-Jan-10 12:28N 29°37' W 095°01'0 0.0
2018-Jan-10 11:58N 29°37' W 095°01'0 0.0
2018-Jan-10 11:28N 29°37' W 095°01'0 0.0
2018-Jan-10 10:58N 29°37' W 095°01'0 0.0
2018-Jan-10 10:28N 29°37' W 095°01'0 0.0
2018-Jan-10 09:55N 29°37' W 095°01'0 0.0
2018-Jan-10 09:28N 29°37' W 095°01'0 0.0
2018-Jan-10 08:58N 29°37' W 095°01'0 0.0
2018-Jan-10 08:28N 29°37' W 095°01'0 0.0
2018-Jan-10 07:58N 29°37' W 095°01'0 0.0
2018-Jan-10 07:28N 29°37' W 095°01'0 0.0
2018-Jan-10 06:58N 29°37' W 095°01'0 0.0
2018-Jan-10 06:28N 29°37' W 095°01'0 0.0
2018-Jan-10 05:58N 29°37' W 095°01'0 0.0
2018-Jan-10 05:28N 29°37' W 095°01'0 0.0
2018-Jan-10 04:55N 29°37' W 095°01'0 0.0
2018-Jan-10 04:28N 29°37' W 095°01'0 0.0
2018-Jan-10 03:58N 29°37' W 095°01'0 0.0
2018-Jan-10 03:28N 29°37' W 095°01'0 0.0
2018-Jan-10 02:58N 29°37' W 095°01'0 0.0
2018-Jan-10 02:28N 29°37' W 095°01'0 0.0
2018-Jan-10 01:58N 29°37' W 095°01'0 0.0
2018-Jan-10 01:28N 29°37' W 095°01'0 0.0
2018-Jan-10 00:58N 29°37' W 095°01'0 0.0
2018-Jan-10 00:28N 29°37' W 095°01'0 0.0
2018-Jan-09 23:58N 29°37' W 095°01'0 0.0
2018-Jan-09 23:28N 29°37' W 095°01'0 0.0
2018-Jan-09 22:58N 29°37' W 095°01'0 0.0
2018-Jan-09 20:07N 29°37' W 095°01'0 0.0
2018-Jan-09 19:58N 29°37' W 095°01'0 0.0
2018-Jan-09 19:25N 29°37' W 095°01'0 0.0
2018-Jan-09 18:52N 29°37' W 095°01'0 0.0
2018-Jan-09 18:10N 29°37' W 095°01'0 0.0
2018-Jan-09 17:58N 29°37' W 095°01'0 0.0
2018-Jan-09 17:25N 29°37' W 095°01'0 0.0
2018-Jan-09 16:58N 29°37' W 095°01'0 0.0
2018-Jan-09 16:28N 29°37' W 095°01'0 0.0
2018-Jan-09 15:58N 29°37' W 095°01'0 0.0
2018-Jan-09 15:13N 29°37' W 095°01'0 0.0
2018-Jan-09 14:58N 29°37' W 095°01'0 0.0
2018-Jan-09 14:25N 29°37' W 095°01'0 0.0
2018-Jan-09 12:49N 29°37' W 095°01'0 0.0
2018-Jan-08 18:55N 29°37' W 095°01'0 0.0
2018-Jan-08 18:28N 29°37' W 095°01'0 0.0
2018-Jan-08 17:58N 29°37' W 095°01'0 0.0
2018-Jan-08 17:28N 29°37' W 095°01'0 0.0
2018-Jan-08 16:58N 29°37' W 095°01'0 0.0
2018-Jan-08 16:28N 29°37' W 095°01'0 0.0
2018-Jan-08 15:58N 29°37' W 095°01'0 0.0
2018-Jan-08 15:28N 29°37' W 095°01'0 0.0
2018-Jan-08 14:58N 29°37' W 095°01'0 0.0
2018-Jan-08 14:25N 29°37' W 095°01'0 0.0
2018-Jan-08 13:58N 29°37' W 095°01'0 0.0
2018-Jan-08 13:28N 29°37' W 095°01'0 0.0
2018-Jan-08 12:58N 29°37' W 095°01'0 0.0
2018-Jan-08 12:28N 29°37' W 095°01'0 0.0
2018-Jan-08 11:58N 29°37' W 095°01'0 0.0
2018-Jan-08 11:28N 29°37' W 095°01'0 0.0
2018-Jan-08 10:58N 29°37' W 095°01'0 0.0
2018-Jan-08 10:28N 29°37' W 095°01'0 0.0
2018-Jan-08 09:58N 29°37' W 095°01'0 0.0
2018-Jan-08 09:28N 29°37' W 095°01'0 0.0
2018-Jan-08 08:58N 29°37' W 095°01'0 0.0
2018-Jan-08 08:22N 29°37' W 095°01'0 0.0
2018-Jan-08 07:58N 29°37' W 095°01'0 0.0
2018-Jan-08 07:28N 29°37' W 095°01'0 0.0
2018-Jan-08 06:58N 29°37' W 095°01'0 0.0
2018-Jan-08 06:28N 29°37' W 095°01'0 0.0
2018-Jan-08 05:58N 29°37' W 095°01'0 0.0
2018-Jan-08 05:28N 29°37' W 095°01'0 0.0
2018-Jan-08 04:58N 29°37' W 095°01'0 0.1
2018-Jan-08 04:31N 29°37' W 095°01'1 2.4
2018-Jan-08 04:01N 29°37' W 094°60'3 5.4
2018-Jan-08 03:31N 29°36' W 094°57'5 9.8
2018-Jan-08 03:01N 29°32' W 094°54'612.5
2018-Jan-08 02:30N 29°26' W 094°50'4 0.1
2018-Jan-06 11:27N 29°23' W 094°53'2 0.1
2018-Jan-05 11:42N 29°22' W 094°55'0 0.9
2018-Jan-05 11:30N 29°22' W 094°55'2 2.8
2018-Jan-05 10:57N 29°23' W 094°53'3 6.1
2018-Jan-05 10:30N 29°22' W 094°50'  
Track history (hours):
 
Tides and Currents Weather Stations Pressure Air Temp Water Temp Dewpoint Dewpoint Depression Visibility Wind Speed Wind Dir Waves Ship Positions

Bow Flora

Last reported at 2018-Jan-12 04:38 UTC. Time now 2018-Jan-19 03:09 UTC.
Position N 29°45' W 095°06'.

Length 183 m; draft 9.3 m.

Type: Ship (hazmat cat B). MMSI: 259927000.

Date/timePositionNaut miles runAvg speedWind from/ knotsBaromVisibWave heightAir tempDewpointWater temp
2018-Jan-12 04:38N 29°45' W 095°06'0 0.2
2018-Jan-12 04:30N 29°45' W 095°06'1 2.5
2018-Jan-12 04:00N 29°46' W 095°05'4 7.0
2018-Jan-12 03:30N 29°44' W 095°01'3 7.1
2018-Jan-12 03:00N 29°41' W 094°59'4 8.7
2018-Jan-12 02:30N 29°37' W 094°57'510.5
2018-Jan-12 02:00N 29°32' W 094°54'610.2
2018-Jan-12 01:26N 29°27' W 094°51'610.4
2018-Jan-12 00:52N 29°22' W 094°48'1 0.0
2018-Jan-10 21:20N 29°21' W 094°47'410.7
2018-Jan-10 21:00N 29°24' W 094°49'510.8
2018-Jan-10 20:30N 29°29' W 094°52'611.3
2018-Jan-10 20:00N 29°34' W 094°55'4 8.8
2018-Jan-10 19:30N 29°37' W 094°59'2 3.9
2018-Jan-10 19:00N 29°37' W 095°01'0 0.0
2018-Jan-10 18:28N 29°37' W 095°01'0 0.0
2018-Jan-10 17:58N 29°37' W 095°01'0 0.0
2018-Jan-10 17:28N 29°37' W 095°01'0 0.0
2018-Jan-10 16:58N 29°37' W 095°01'0 0.0
2018-Jan-10 16:28N 29°37' W 095°01'0 0.0
2018-Jan-10 15:58N 29°37' W 095°01'0 0.0
2018-Jan-10 15:28N 29°37' W 095°01'0 0.0
2018-Jan-10 14:58N 29°37' W 095°01'0 0.0
2018-Jan-10 14:28N 29°37' W 095°01'0 0.0
2018-Jan-10 13:58N 29°37' W 095°01'0 0.0
2018-Jan-10 13:28N 29°37' W 095°01'0 0.0
2018-Jan-10 12:58N 29°37' W 095°01'0 0.0
2018-Jan-10 12:28N 29°37' W 095°01'0 0.0
2018-Jan-10 11:58N 29°37' W 095°01'0 0.0
2018-Jan-10 11:28N 29°37' W 095°01'0 0.0
2018-Jan-10 10:58N 29°37' W 095°01'0 0.0
2018-Jan-10 10:28N 29°37' W 095°01'0 0.0
2018-Jan-10 09:55N 29°37' W 095°01'0 0.0
2018-Jan-10 09:28N 29°37' W 095°01'0 0.0
2018-Jan-10 08:58N 29°37' W 095°01'0 0.0
2018-Jan-10 08:28N 29°37' W 095°01'0 0.0
2018-Jan-10 07:58N 29°37' W 095°01'0 0.0
2018-Jan-10 07:28N 29°37' W 095°01'0 0.0
2018-Jan-10 06:58N 29°37' W 095°01'0 0.0
2018-Jan-10 06:28N 29°37' W 095°01'0 0.0
2018-Jan-10 05:58N 29°37' W 095°01'0 0.0
2018-Jan-10 05:28N 29°37' W 095°01'0 0.0
2018-Jan-10 04:55N 29°37' W 095°01'0 0.0
2018-Jan-10 04:28N 29°37' W 095°01'0 0.0
2018-Jan-10 03:58N 29°37' W 095°01'0 0.0
2018-Jan-10 03:28N 29°37' W 095°01'0 0.0
2018-Jan-10 02:58N 29°37' W 095°01'0 0.0
2018-Jan-10 02:28N 29°37' W 095°01'0 0.0
2018-Jan-10 01:58N 29°37' W 095°01'0 0.0
2018-Jan-10 01:28N 29°37' W 095°01'0 0.0
2018-Jan-10 00:58N 29°37' W 095°01'0 0.0
2018-Jan-10 00:28N 29°37' W 095°01'0 0.0
2018-Jan-09 23:58N 29°37' W 095°01'0 0.0
2018-Jan-09 23:28N 29°37' W 095°01'0 0.0
2018-Jan-09 22:58N 29°37' W 095°01'0 0.0
2018-Jan-09 20:07N 29°37' W 095°01'0 0.0
2018-Jan-09 19:58N 29°37' W 095°01'0 0.0
2018-Jan-09 19:25N 29°37' W 095°01'0 0.0
2018-Jan-09 18:52N 29°37' W 095°01'0 0.0
2018-Jan-09 18:10N 29°37' W 095°01'0 0.0
2018-Jan-09 17:58N 29°37' W 095°01'0 0.0
2018-Jan-09 17:25N 29°37' W 095°01'0 0.0
2018-Jan-09 16:58N 29°37' W 095°01'0 0.0
2018-Jan-09 16:28N 29°37' W 095°01'0 0.0
2018-Jan-09 15:58N 29°37' W 095°01'0 0.0
2018-Jan-09 15:13N 29°37' W 095°01'0 0.0
2018-Jan-09 14:58N 29°37' W 095°01'0 0.0
2018-Jan-09 14:25N 29°37' W 095°01'0 0.0
2018-Jan-09 12:49N 29°37' W 095°01'0 0.0
2018-Jan-08 18:55N 29°37' W 095°01'0 0.0
2018-Jan-08 18:28N 29°37' W 095°01'0 0.0
2018-Jan-08 17:58N 29°37' W 095°01'0 0.0
2018-Jan-08 17:28N 29°37' W 095°01'0 0.0
2018-Jan-08 16:58N 29°37' W 095°01'0 0.0
2018-Jan-08 16:28N 29°37' W 095°01'0 0.0
2018-Jan-08 15:58N 29°37' W 095°01'0 0.0
2018-Jan-08 15:28N 29°37' W 095°01'0 0.0
2018-Jan-08 14:58N 29°37' W 095°01'0 0.0
2018-Jan-08 14:25N 29°37' W 095°01'0 0.0
2018-Jan-08 13:58N 29°37' W 095°01'0 0.0
2018-Jan-08 13:28N 29°37' W 095°01'0 0.0
2018-Jan-08 12:58N 29°37' W 095°01'0 0.0
2018-Jan-08 12:28N 29°37' W 095°01'0 0.0
2018-Jan-08 11:58N 29°37' W 095°01'0 0.0
2018-Jan-08 11:28N 29°37' W 095°01'0 0.0
2018-Jan-08 10:58N 29°37' W 095°01'0 0.0
2018-Jan-08 10:28N 29°37' W 095°01'0 0.0
2018-Jan-08 09:58N 29°37' W 095°01'0 0.0
2018-Jan-08 09:28N 29°37' W 095°01'0 0.0
2018-Jan-08 08:58N 29°37' W 095°01'0 0.0
2018-Jan-08 08:22N 29°37' W 095°01'0 0.0
2018-Jan-08 07:58N 29°37' W 095°01'0 0.0
2018-Jan-08 07:28N 29°37' W 095°01'0 0.0
2018-Jan-08 06:58N 29°37' W 095°01'0 0.0
2018-Jan-08 06:28N 29°37' W 095°01'0 0.0
2018-Jan-08 05:58N 29°37' W 095°01'0 0.0
2018-Jan-08 05:28N 29°37' W 095°01'0 0.0
2018-Jan-08 04:58N 29°37' W 095°01'0 0.1
2018-Jan-08 04:31N 29°37' W 095°01'1 2.4
2018-Jan-08 04:01N 29°37' W 094°60'3 5.4
2018-Jan-08 03:31N 29°36' W 094°57'5 9.8
2018-Jan-08 03:01N 29°32' W 094°54'612.5
2018-Jan-08 02:30N 29°26' W 094°50'4 0.1
2018-Jan-06 11:27N 29°23' W 094°53'2 0.1
2018-Jan-05 11:42N 29°22' W 094°55'0 0.9
2018-Jan-05 11:30N 29°22' W 094°55'2 2.8
2018-Jan-05 10:57N 29°23' W 094°53'3 6.1
2018-Jan-05 10:30N 29°22' W 094°50'  

Dump ship's entire track history